sensor_id;sensor_type;location;lat;lon;timestamp;temperature;humidity
53876;DHT22;39789;53.216;5.624;2023-12-20T00:00:36;7.20;99.90
53876;DHT22;39789;53.216;5.624;2023-12-20T00:03:03;7.20;99.90
53876;DHT22;39789;53.216;5.624;2023-12-20T00:05:29;6.90;99.90
53876;DHT22;39789;53.216;5.624;2023-12-20T00:07:54;7.30;99.90
53876;DHT22;39789;53.216;5.624;2023-12-20T00:10:21;7.00;99.90
53876;DHT22;39789;53.216;5.624;2023-12-20T00:12:46;6.90;99.90
53876;DHT22;39789;53.216;5.624;2023-12-20T00:15:12;7.40;99.90
53876;DHT22;39789;53.216;5.624;2023-12-20T00:17:38;7.00;99.90
53876;DHT22;39789;53.216;5.624;2023-12-20T00:20:04;7.10;99.90
53876;DHT22;39789;53.216;5.624;2023-12-20T00:22:30;7.10;99.90
53876;DHT22;39789;53.216;5.624;2023-12-20T00:24:56;7.10;99.90
53876;DHT22;39789;53.216;5.624;2023-12-20T00:27:22;7.10;99.90
53876;DHT22;39789;53.216;5.624;2023-12-20T00:29:50;7.10;99.90
53876;DHT22;39789;53.216;5.624;2023-12-20T00:32:16;7.20;99.90
53876;DHT22;39789;53.216;5.624;2023-12-20T00:34:43;7.60;99.90
53876;DHT22;39789;53.216;5.624;2023-12-20T00:37:08;7.20;99.90
53876;DHT22;39789;53.216;5.624;2023-12-20T00:39:34;7.30;99.90
53876;DHT22;39789;53.216;5.624;2023-12-20T00:42:00;7.30;99.90
53876;DHT22;39789;53.216;5.624;2023-12-20T00:44:25;7.20;99.90
53876;DHT22;39789;53.216;5.624;2023-12-20T00:46:51;7.20;99.90
53876;DHT22;39789;53.216;5.624;2023-12-20T00:49:17;7.40;99.90
53876;DHT22;39789;53.216;5.624;2023-12-20T00:51:43;7.40;99.90
53876;DHT22;39789;53.216;5.624;2023-12-20T00:54:09;7.30;99.90
53876;DHT22;39789;53.216;5.624;2023-12-20T00:56:35;7.40;99.90
53876;DHT22;39789;53.216;5.624;2023-12-20T00:59:00;7.50;99.90
53876;DHT22;39789;53.216;5.624;2023-12-20T01:01:26;7.50;99.90
53876;DHT22;39789;53.216;5.624;2023-12-20T01:03:52;7.50;99.90
53876;DHT22;39789;53.216;5.624;2023-12-20T01:06:18;7.90;99.90
53876;DHT22;39789;53.216;5.624;2023-12-20T01:08:45;7.40;99.90
53876;DHT22;39789;53.216;5.624;2023-12-20T01:11:10;7.70;99.90
53876;DHT22;39789;53.216;5.624;2023-12-20T01:13:36;7.40;99.90
53876;DHT22;39789;53.216;5.624;2023-12-20T01:16:02;7.70;99.90
53876;DHT22;39789;53.216;5.624;2023-12-20T01:18:28;7.40;99.90
53876;DHT22;39789;53.216;5.624;2023-12-20T01:20:54;7.90;99.90
53876;DHT22;39789;53.216;5.624;2023-12-20T01:23:19;7.40;99.90
53876;DHT22;39789;53.216;5.624;2023-12-20T01:25:45;8.10;99.90
53876;DHT22;39789;53.216;5.624;2023-12-20T01:28:11;7.50;99.90
53876;DHT22;39789;53.216;5.624;2023-12-20T01:30:37;7.70;99.90
53876;DHT22;39789;53.216;5.624;2023-12-20T01:33:03;7.50;99.90
53876;DHT22;39789;53.216;5.624;2023-12-20T01:35:29;7.50;99.90
53876;DHT22;39789;53.216;5.624;2023-12-20T01:37:54;8.00;99.90
53876;DHT22;39789;53.216;5.624;2023-12-20T01:40:26;7.50;99.90
53876;DHT22;39789;53.216;5.624;2023-12-20T01:43:08;7.50;99.90
53876;DHT22;39789;53.216;5.624;2023-12-20T01:45:34;7.50;99.90
53876;DHT22;39789;53.216;5.624;2023-12-20T01:48:00;8.20;99.90
53876;DHT22;39789;53.216;5.624;2023-12-20T01:50:28;7.50;99.90
53876;DHT22;39789;53.216;5.624;2023-12-20T01:52:56;7.80;99.90
53876;DHT22;39789;53.216;5.624;2023-12-20T01:55:24;7.50;99.90
53876;DHT22;39789;53.216;5.624;2023-12-20T01:57:51;7.80;99.90
53876;DHT22;39789;53.216;5.624;2023-12-20T02:00:17;8.10;99.90
53876;DHT22;39789;53.216;5.624;2023-12-20T02:02:44;7.50;99.90
53876;DHT22;39789;53.216;5.624;2023-12-20T02:05:11;8.30;99.90
53876;DHT22;39789;53.216;5.624;2023-12-20T02:07:36;7.50;99.90
53876;DHT22;39789;53.216;5.624;2023-12-20T02:10:02;8.10;99.90
53876;DHT22;39789;53.216;5.624;2023-12-20T02:12:30;7.50;99.90
53876;DHT22;39789;53.216;5.624;2023-12-20T02:14:55;7.50;99.90
53876;DHT22;39789;53.216;5.624;2023-12-20T02:17:22;7.50;99.90
53876;DHT22;39789;53.216;5.624;2023-12-20T02:19:49;7.50;99.90
53876;DHT22;39789;53.216;5.624;2023-12-20T02:22:14;7.50;99.90
53876;DHT22;39789;53.216;5.624;2023-12-20T02:24:40;8.20;99.90
53876;DHT22;39789;53.216;5.624;2023-12-20T02:27:07;7.50;99.90
53876;DHT22;39789;53.216;5.624;2023-12-20T02:29:34;7.50;99.90
53876;DHT22;39789;53.216;5.624;2023-12-20T02:32:00;7.50;99.90
53876;DHT22;39789;53.216;5.624;2023-12-20T02:34:29;7.50;99.90
53876;DHT22;39789;53.216;5.624;2023-12-20T02:37:00;7.50;99.90
53876;DHT22;39789;53.216;5.624;2023-12-20T02:39:26;7.70;99.90
53876;DHT22;39789;53.216;5.624;2023-12-20T02:41:51;7.50;99.90
53876;DHT22;39789;53.216;5.624;2023-12-20T02:44:20;7.60;99.90
53876;DHT22;39789;53.216;5.624;2023-12-20T02:46:45;7.60;99.90
53876;DHT22;39789;53.216;5.624;2023-12-20T02:49:11;7.50;99.90
53876;DHT22;39789;53.216;5.624;2023-12-20T02:51:37;8.00;99.90
53876;DHT22;39789;53.216;5.624;2023-12-20T02:54:05;7.50;99.90
53876;DHT22;39789;53.216;5.624;2023-12-20T02:56:35;7.60;99.90
53876;DHT22;39789;53.216;5.624;2023-12-20T02:59:00;7.50;99.90
53876;DHT22;39789;53.216;5.624;2023-12-20T03:01:27;8.00;99.90
53876;DHT22;39789;53.216;5.624;2023-12-20T03:03:53;7.60;99.90
53876;DHT22;39789;53.216;5.624;2023-12-20T03:06:19;7.60;99.90
53876;DHT22;39789;53.216;5.624;2023-12-20T03:08:45;7.80;99.90
53876;DHT22;39789;53.216;5.624;2023-12-20T03:11:11;7.60;99.90
53876;DHT22;39789;53.216;5.624;2023-12-20T03:13:37;8.60;99.90
53876;DHT22;39789;53.216;5.624;2023-12-20T03:16:13;8.00;99.90
53876;DHT22;39789;53.216;5.624;2023-12-20T03:18:39;7.70;99.90
53876;DHT22;39789;53.216;5.624;2023-12-20T03:21:05;8.00;99.90
53876;DHT22;39789;53.216;5.624;2023-12-20T03:23:31;7.80;99.90
53876;DHT22;39789;53.216;5.624;2023-12-20T03:26:02;8.30;99.90
53876;DHT22;39789;53.216;5.624;2023-12-20T03:28:28;7.70;99.90
53876;DHT22;39789;53.216;5.624;2023-12-20T03:30:53;7.70;99.90
53876;DHT22;39789;53.216;5.624;2023-12-20T03:33:19;7.70;99.90
53876;DHT22;39789;53.216;5.624;2023-12-20T03:35:45;8.20;99.90
53876;DHT22;39789;53.216;5.624;2023-12-20T03:38:11;7.70;99.90
53876;DHT22;39789;53.216;5.624;2023-12-20T03:40:37;7.70;99.90
53876;DHT22;39789;53.216;5.624;2023-12-20T03:43:02;8.10;99.90
53876;DHT22;39789;53.216;5.624;2023-12-20T03:45:28;7.70;99.90
53876;DHT22;39789;53.216;5.624;2023-12-20T03:47:55;7.80;99.90
53876;DHT22;39789;53.216;5.624;2023-12-20T03:50:27;7.80;99.90
53876;DHT22;39789;53.216;5.624;2023-12-20T03:52:53;7.80;99.90
53876;DHT22;39789;53.216;5.624;2023-12-20T03:55:18;7.90;99.90
53876;DHT22;39789;53.216;5.624;2023-12-20T03:57:44;7.80;99.90
53876;DHT22;39789;53.216;5.624;2023-12-20T04:00:10;8.30;99.90
53876;DHT22;39789;53.216;5.624;2023-12-20T04:02:40;7.80;99.90
53876;DHT22;39789;53.216;5.624;2023-12-20T04:05:07;7.80;99.90
53876;DHT22;39789;53.216;5.624;2023-12-20T04:07:33;7.80;99.90
53876;DHT22;39789;53.216;5.624;2023-12-20T04:09:59;8.30;99.90
53876;DHT22;39789;53.216;5.624;2023-12-20T04:12:25;8.30;99.90
53876;DHT22;39789;53.216;5.624;2023-12-20T04:14:54;7.90;99.90
53876;DHT22;39789;53.216;5.624;2023-12-20T04:17:20;7.80;99.90
53876;DHT22;39789;53.216;5.624;2023-12-20T04:19:48;7.90;99.90
53876;DHT22;39789;53.216;5.624;2023-12-20T04:22:14;8.00;99.90
53876;DHT22;39789;53.216;5.624;2023-12-20T04:24:40;8.40;99.90
53876;DHT22;39789;53.216;5.624;2023-12-20T04:27:07;7.90;99.90
53876;DHT22;39789;53.216;5.624;2023-12-20T04:29:34;7.90;99.90
53876;DHT22;39789;53.216;5.624;2023-12-20T04:32:00;7.90;99.90
53876;DHT22;39789;53.216;5.624;2023-12-20T04:34:26;8.40;99.90
53876;DHT22;39789;53.216;5.624;2023-12-20T04:36:52;8.40;99.90
53876;DHT22;39789;53.216;5.624;2023-12-20T04:39:18;8.30;99.90
53876;DHT22;39789;53.216;5.624;2023-12-20T04:41:44;8.00;99.90
53876;DHT22;39789;53.216;5.624;2023-12-20T04:44:09;7.90;99.90
53876;DHT22;39789;53.216;5.624;2023-12-20T04:46:35;8.00;99.90
53876;DHT22;39789;53.216;5.624;2023-12-20T04:49:01;8.10;99.90
53876;DHT22;39789;53.216;5.624;2023-12-20T04:51:27;8.40;99.90
53876;DHT22;39789;53.216;5.624;2023-12-20T04:53:53;8.10;99.90
53876;DHT22;39789;53.216;5.624;2023-12-20T04:56:21;8.00;99.90
53876;DHT22;39789;53.216;5.624;2023-12-20T04:58:47;7.90;99.90
53876;DHT22;39789;53.216;5.624;2023-12-20T05:01:14;8.20;99.90
53876;DHT22;39789;53.216;5.624;2023-12-20T05:03:39;8.30;99.90
53876;DHT22;39789;53.216;5.624;2023-12-20T05:06:05;8.00;99.90
53876;DHT22;39789;53.216;5.624;2023-12-20T05:08:31;8.00;99.90
53876;DHT22;39789;53.216;5.624;2023-12-20T05:10:57;8.20;99.90
53876;DHT22;39789;53.216;5.624;2023-12-20T05:13:22;8.80;99.90
53876;DHT22;39789;53.216;5.624;2023-12-20T05:15:48;8.50;99.90
53876;DHT22;39789;53.216;5.624;2023-12-20T05:18:14;8.20;99.90
53876;DHT22;39789;53.216;5.624;2023-12-20T05:20:40;8.40;99.90
53876;DHT22;39789;53.216;5.624;2023-12-20T05:23:06;8.10;99.90
53876;DHT22;39789;53.216;5.624;2023-12-20T05:25:32;8.10;99.90
53876;DHT22;39789;53.216;5.624;2023-12-20T05:27:58;8.10;99.90
53876;DHT22;39789;53.216;5.624;2023-12-20T05:30:23;8.10;99.90
53876;DHT22;39789;53.216;5.624;2023-12-20T05:32:49;8.10;99.90
53876;DHT22;39789;53.216;5.624;2023-12-20T05:35:15;8.60;99.90
53876;DHT22;39789;53.216;5.624;2023-12-20T05:37:41;8.70;99.90
53876;DHT22;39789;53.216;5.624;2023-12-20T05:40:07;8.30;99.90
53876;DHT22;39789;53.216;5.624;2023-12-20T05:42:36;8.10;99.90
53876;DHT22;39789;53.216;5.624;2023-12-20T05:45:04;8.50;99.90
53876;DHT22;39789;53.216;5.624;2023-12-20T05:47:30;8.10;99.90
53876;DHT22;39789;53.216;5.624;2023-12-20T05:49:55;8.50;99.90
53876;DHT22;39789;53.216;5.624;2023-12-20T05:52:21;8.10;99.90
53876;DHT22;39789;53.216;5.624;2023-12-20T05:54:47;8.80;99.90
53876;DHT22;39789;53.216;5.624;2023-12-20T05:57:13;8.50;99.90
53876;DHT22;39789;53.216;5.624;2023-12-20T05:59:39;8.80;99.90
53876;DHT22;39789;53.216;5.624;2023-12-20T06:02:05;8.40;99.90
53876;DHT22;39789;53.216;5.624;2023-12-20T06:04:31;9.00;99.90
53876;DHT22;39789;53.216;5.624;2023-12-20T06:06:57;8.10;99.90
53876;DHT22;39789;53.216;5.624;2023-12-20T06:09:22;8.20;99.90
53876;DHT22;39789;53.216;5.624;2023-12-20T06:11:49;8.10;99.90
53876;DHT22;39789;53.216;5.624;2023-12-20T06:14:15;8.20;99.90
53876;DHT22;39789;53.216;5.624;2023-12-20T06:16:40;8.10;99.90
53876;DHT22;39789;53.216;5.624;2023-12-20T06:19:06;8.20;99.90
53876;DHT22;39789;53.216;5.624;2023-12-20T06:21:32;8.10;99.90
53876;DHT22;39789;53.216;5.624;2023-12-20T06:23:59;8.20;99.90
53876;DHT22;39789;53.216;5.624;2023-12-20T06:26:24;8.60;99.90
53876;DHT22;39789;53.216;5.624;2023-12-20T06:28:50;8.20;99.90
53876;DHT22;39789;53.216;5.624;2023-12-20T06:31:16;8.70;99.90
53876;DHT22;39789;53.216;5.624;2023-12-20T06:33:42;8.90;99.90
53876;DHT22;39789;53.216;5.624;2023-12-20T06:36:11;8.20;99.90
53876;DHT22;39789;53.216;5.624;2023-12-20T06:38:37;8.80;99.90
53876;DHT22;39789;53.216;5.624;2023-12-20T06:41:03;8.30;99.90
53876;DHT22;39789;53.216;5.624;2023-12-20T06:43:29;8.20;99.90
53876;DHT22;39789;53.216;5.624;2023-12-20T06:45:55;8.60;99.90
53876;DHT22;39789;53.216;5.624;2023-12-20T06:48:21;8.30;99.90
53876;DHT22;39789;53.216;5.624;2023-12-20T06:50:47;8.10;99.90
53876;DHT22;39789;53.216;5.624;2023-12-20T06:53:12;8.20;99.90
53876;DHT22;39789;53.216;5.624;2023-12-20T06:55:38;8.70;99.90
53876;DHT22;39789;53.216;5.624;2023-12-20T06:58:04;8.10;99.90
53876;DHT22;39789;53.216;5.624;2023-12-20T07:00:30;8.10;99.90
53876;DHT22;39789;53.216;5.624;2023-12-20T07:02:56;8.60;99.90
53876;DHT22;39789;53.216;5.624;2023-12-20T07:05:22;8.70;99.90
53876;DHT22;39789;53.216;5.624;2023-12-20T07:07:48;8.10;99.90
53876;DHT22;39789;53.216;5.624;2023-12-20T07:10:14;8.50;99.90
53876;DHT22;39789;53.216;5.624;2023-12-20T07:12:39;8.10;99.90
53876;DHT22;39789;53.216;5.624;2023-12-20T07:15:05;8.20;99.90
53876;DHT22;39789;53.216;5.624;2023-12-20T07:17:33;8.00;99.90
53876;DHT22;39789;53.216;5.624;2023-12-20T07:19:59;8.10;99.90
53876;DHT22;39789;53.216;5.624;2023-12-20T07:22:29;8.10;99.90
53876;DHT22;39789;53.216;5.624;2023-12-20T07:24:57;8.10;99.90
53876;DHT22;39789;53.216;5.624;2023-12-20T07:27:23;8.50;99.90
53876;DHT22;39789;53.216;5.624;2023-12-20T07:29:49;8.20;99.90
53876;DHT22;39789;53.216;5.624;2023-12-20T07:32:15;8.20;99.90
53876;DHT22;39789;53.216;5.624;2023-12-20T07:34:40;8.10;99.90
53876;DHT22;39789;53.216;5.624;2023-12-20T07:37:06;8.70;99.90
53876;DHT22;39789;53.216;5.624;2023-12-20T07:39:32;8.20;99.90
53876;DHT22;39789;53.216;5.624;2023-12-20T07:41:57;8.50;99.90
53876;DHT22;39789;53.216;5.624;2023-12-20T07:44:25;8.10;99.90
53876;DHT22;39789;53.216;5.624;2023-12-20T07:46:51;8.40;99.90
53876;DHT22;39789;53.216;5.624;2023-12-20T07:49:17;8.50;99.90
53876;DHT22;39789;53.216;5.624;2023-12-20T07:51:44;8.20;99.90
53876;DHT22;39789;53.216;5.624;2023-12-20T07:54:09;7.60;99.90
53876;DHT22;39789;53.216;5.624;2023-12-20T07:56:35;7.50;99.90
53876;DHT22;39789;53.216;5.624;2023-12-20T07:59:01;7.60;99.90
53876;DHT22;39789;53.216;5.624;2023-12-20T08:01:26;7.50;99.90
53876;DHT22;39789;53.216;5.624;2023-12-20T08:03:52;7.60;99.90
53876;DHT22;39789;53.216;5.624;2023-12-20T08:06:18;7.70;99.90
53876;DHT22;39789;53.216;5.624;2023-12-20T08:08:44;8.20;99.90
53876;DHT22;39789;53.216;5.624;2023-12-20T08:11:10;8.10;99.90
53876;DHT22;39789;53.216;5.624;2023-12-20T08:13:36;8.40;99.90
53876;DHT22;39789;53.216;5.624;2023-12-20T08:16:02;8.50;99.90
53876;DHT22;39789;53.216;5.624;2023-12-20T08:18:28;7.90;99.90
53876;DHT22;39789;53.216;5.624;2023-12-20T08:20:54;8.10;99.90
53876;DHT22;39789;53.216;5.624;2023-12-20T08:23:20;8.00;99.90
53876;DHT22;39789;53.216;5.624;2023-12-20T08:25:46;8.10;99.90
53876;DHT22;39789;53.216;5.624;2023-12-20T08:28:13;8.10;99.90
53876;DHT22;39789;53.216;5.624;2023-12-20T08:30:39;8.10;99.90
53876;DHT22;39789;53.216;5.624;2023-12-20T08:33:06;8.10;99.90
53876;DHT22;39789;53.216;5.624;2023-12-20T08:35:33;8.10;99.90
53876;DHT22;39789;53.216;5.624;2023-12-20T08:37:59;8.40;99.90
53876;DHT22;39789;53.216;5.624;2023-12-20T08:40:24;8.70;99.90
53876;DHT22;39789;53.216;5.624;2023-12-20T08:42:50;8.70;99.90
53876;DHT22;39789;53.216;5.624;2023-12-20T08:45:15;8.40;99.90
53876;DHT22;39789;53.216;5.624;2023-12-20T08:47:41;8.60;99.90
53876;DHT22;39789;53.216;5.624;2023-12-20T08:50:08;8.40;99.90
53876;DHT22;39789;53.216;5.624;2023-12-20T08:52:33;8.20;99.90
53876;DHT22;39789;53.216;5.624;2023-12-20T08:54:59;8.60;99.90
53876;DHT22;39789;53.216;5.624;2023-12-20T08:57:25;8.50;99.90
53876;DHT22;39789;53.216;5.624;2023-12-20T08:59:50;8.10;99.90
53876;DHT22;39789;53.216;5.624;2023-12-20T09:02:16;8.30;99.90
53876;DHT22;39789;53.216;5.624;2023-12-20T09:04:43;7.30;99.90
53876;DHT22;39789;53.216;5.624;2023-12-20T09:07:25;7.30;99.90
53876;DHT22;39789;53.216;5.624;2023-12-20T09:09:51;6.90;99.90
53876;DHT22;39789;53.216;5.624;2023-12-20T09:12:21;6.80;99.90
53876;DHT22;39789;53.216;5.624;2023-12-20T09:14:48;6.70;99.90
53876;DHT22;39789;53.216;5.624;2023-12-20T09:17:14;7.30;99.90
53876;DHT22;39789;53.216;5.624;2023-12-20T09:19:40;7.10;99.90
53876;DHT22;39789;53.216;5.624;2023-12-20T09:22:06;6.80;99.90
53876;DHT22;39789;53.216;5.624;2023-12-20T09:24:32;7.60;99.90
53876;DHT22;39789;53.216;5.624;2023-12-20T09:26:58;6.80;99.90
53876;DHT22;39789;53.216;5.624;2023-12-20T09:29:23;6.80;99.90
53876;DHT22;39789;53.216;5.624;2023-12-20T09:31:50;7.40;99.90
53876;DHT22;39789;53.216;5.624;2023-12-20T09:34:16;7.20;99.90
53876;DHT22;39789;53.216;5.624;2023-12-20T09:36:44;6.80;99.90
53876;DHT22;39789;53.216;5.624;2023-12-20T09:39:17;7.60;99.90
53876;DHT22;39789;53.216;5.624;2023-12-20T09:44:25;7.60;99.90
53876;DHT22;39789;53.216;5.624;2023-12-20T09:46:55;7.40;99.90
53876;DHT22;39789;53.216;5.624;2023-12-20T09:49:21;6.90;99.90
53876;DHT22;39789;53.216;5.624;2023-12-20T09:51:47;7.30;99.90
53876;DHT22;39789;53.216;5.624;2023-12-20T09:54:17;7.10;99.90
53876;DHT22;39789;53.216;5.624;2023-12-20T09:56:44;6.80;99.90
53876;DHT22;39789;53.216;5.624;2023-12-20T09:59:10;6.90;99.90
53876;DHT22;39789;53.216;5.624;2023-12-20T10:01:39;7.00;99.90
53876;DHT22;39789;53.216;5.624;2023-12-20T10:04:06;7.20;99.90
53876;DHT22;39789;53.216;5.624;2023-12-20T10:06:44;7.30;99.90
53876;DHT22;39789;53.216;5.624;2023-12-20T10:09:11;7.70;99.90
53876;DHT22;39789;53.216;5.624;2023-12-20T10:11:38;7.50;99.90
53876;DHT22;39789;53.216;5.624;2023-12-20T10:14:05;7.70;99.90
53876;DHT22;39789;53.216;5.624;2023-12-20T10:16:31;7.50;99.90
53876;DHT22;39789;53.216;5.624;2023-12-20T10:18:58;7.50;99.90
53876;DHT22;39789;53.216;5.624;2023-12-20T10:21:25;7.60;99.90
53876;DHT22;39789;53.216;5.624;2023-12-20T10:23:57;7.60;99.90
53876;DHT22;39789;53.216;5.624;2023-12-20T10:26:26;8.00;99.90
53876;DHT22;39789;53.216;5.624;2023-12-20T10:28:54;7.80;99.90
53876;DHT22;39789;53.216;5.624;2023-12-20T10:31:31;7.70;99.90
53876;DHT22;39789;53.216;5.624;2023-12-20T10:33:58;7.70;99.90
53876;DHT22;39789;53.216;5.624;2023-12-20T10:36:30;7.70;99.90
53876;DHT22;39789;53.216;5.624;2023-12-20T10:38:57;7.70;99.90
53876;DHT22;39789;53.216;5.624;2023-12-20T10:41:28;7.70;99.90
53876;DHT22;39789;53.216;5.624;2023-12-20T10:43:59;7.80;99.90
53876;DHT22;39789;53.216;5.624;2023-12-20T10:46:30;7.80;99.90
53876;DHT22;39789;53.216;5.624;2023-12-20T10:48:56;7.80;99.90
53876;DHT22;39789;53.216;5.624;2023-12-20T10:51:23;7.80;99.90
53876;DHT22;39789;53.216;5.624;2023-12-20T10:53:50;8.20;99.90
53876;DHT22;39789;53.216;5.624;2023-12-20T10:56:19;8.00;99.90
53876;DHT22;39789;53.216;5.624;2023-12-20T10:58:50;8.40;99.90
53876;DHT22;39789;53.216;5.624;2023-12-20T11:01:17;8.00;99.90
53876;DHT22;39789;53.216;5.624;2023-12-20T11:03:53;8.40;99.90
53876;DHT22;39789;53.216;5.624;2023-12-20T11:06:43;8.10;99.90
53876;DHT22;39789;53.216;5.624;2023-12-20T11:09:33;8.10;99.90
53876;DHT22;39789;53.216;5.624;2023-12-20T11:12:13;8.50;99.90
53876;DHT22;39789;53.216;5.624;2023-12-20T11:14:46;8.20;99.90
53876;DHT22;39789;53.216;5.624;2023-12-20T11:17:13;8.20;99.90
53876;DHT22;39789;53.216;5.624;2023-12-20T11:20:06;8.50;99.90
53876;DHT22;39789;53.216;5.624;2023-12-20T11:22:34;8.40;99.90
53876;DHT22;39789;53.216;5.624;2023-12-20T11:25:09;8.50;99.90
53876;DHT22;39789;53.216;5.624;2023-12-20T11:27:36;8.50;99.90
53876;DHT22;39789;53.216;5.624;2023-12-20T11:30:05;8.50;99.90
53876;DHT22;39789;53.216;5.624;2023-12-20T11:32:36;8.50;99.90
53876;DHT22;39789;53.216;5.624;2023-12-20T11:35:17;8.50;99.90
53876;DHT22;39789;53.216;5.624;2023-12-20T11:37:45;8.50;99.90
53876;DHT22;39789;53.216;5.624;2023-12-20T11:40:17;8.40;99.90
53876;DHT22;39789;53.216;5.624;2023-12-20T11:42:48;8.80;99.90
53876;DHT22;39789;53.216;5.624;2023-12-20T11:45:19;8.50;99.90
53876;DHT22;39789;53.216;5.624;2023-12-20T11:47:48;8.40;99.90
53876;DHT22;39789;53.216;5.624;2023-12-20T11:50:21;8.90;99.90
53876;DHT22;39789;53.216;5.624;2023-12-20T11:52:47;8.70;99.90
53876;DHT22;39789;53.216;5.624;2023-12-20T11:55:16;8.40;99.90
53876;DHT22;39789;53.216;5.624;2023-12-20T11:57:43;8.40;99.90
53876;DHT22;39789;53.216;5.624;2023-12-20T12:00:10;8.30;99.90
53876;DHT22;39789;53.216;5.624;2023-12-20T12:02:39;8.30;99.90
53876;DHT22;39789;53.216;5.624;2023-12-20T12:05:05;8.20;99.90
53876;DHT22;39789;53.216;5.624;2023-12-20T12:07:31;8.20;99.90
53876;DHT22;39789;53.216;5.624;2023-12-20T12:09:57;7.60;99.90
53876;DHT22;39789;53.216;5.624;2023-12-20T12:12:27;8.80;99.90
53876;DHT22;39789;53.216;5.624;2023-12-20T12:14:54;8.10;99.90
53876;DHT22;39789;53.216;5.624;2023-12-20T12:17:20;8.00;99.90
53876;DHT22;39789;53.216;5.624;2023-12-20T12:19:45;8.50;99.90
53876;DHT22;39789;53.216;5.624;2023-12-20T12:22:15;8.00;99.90
53876;DHT22;39789;53.216;5.624;2023-12-20T12:24:45;7.90;99.90
53876;DHT22;39789;53.216;5.624;2023-12-20T12:27:12;7.90;99.90
53876;DHT22;39789;53.216;5.624;2023-12-20T12:29:38;8.00;99.90
53876;DHT22;39789;53.216;5.624;2023-12-20T12:32:08;7.90;99.90
53876;DHT22;39789;53.216;5.624;2023-12-20T12:34:35;7.80;99.90
53876;DHT22;39789;53.216;5.624;2023-12-20T12:37:01;7.90;99.90
53876;DHT22;39789;53.216;5.624;2023-12-20T12:39:27;7.70;99.90
53876;DHT22;39789;53.216;5.624;2023-12-20T12:41:53;7.60;99.90
53876;DHT22;39789;53.216;5.624;2023-12-20T12:44:22;7.60;99.90
53876;DHT22;39789;53.216;5.624;2023-12-20T12:46:53;7.50;99.90
53876;DHT22;39789;53.216;5.624;2023-12-20T12:49:20;8.20;99.90
53876;DHT22;39789;53.216;5.624;2023-12-20T12:51:49;8.20;99.90
53876;DHT22;39789;53.216;5.624;2023-12-20T12:54:15;7.50;99.90
53876;DHT22;39789;53.216;5.624;2023-12-20T12:56:42;8.20;99.90
53876;DHT22;39789;53.216;5.624;2023-12-20T12:59:08;7.30;99.90
53876;DHT22;39789;53.216;5.624;2023-12-20T13:01:34;7.40;99.90
53876;DHT22;39789;53.216;5.624;2023-12-20T13:04:00;7.30;99.90
53876;DHT22;39789;53.216;5.624;2023-12-20T13:06:28;7.30;99.90
53876;DHT22;39789;53.216;5.624;2023-12-20T13:08:54;7.30;99.90
53876;DHT22;39789;53.216;5.624;2023-12-20T13:11:20;7.30;99.90
53876;DHT22;39789;53.216;5.624;2023-12-20T13:13:49;7.30;99.90
53876;DHT22;39789;53.216;5.624;2023-12-20T13:16:15;7.30;99.90
53876;DHT22;39789;53.216;5.624;2023-12-20T13:18:41;7.30;99.90
53876;DHT22;39789;53.216;5.624;2023-12-20T13:21:08;7.30;99.90
53876;DHT22;39789;53.216;5.624;2023-12-20T13:23:37;7.30;99.90
53876;DHT22;39789;53.216;5.624;2023-12-20T13:26:03;7.30;99.90
53876;DHT22;39789;53.216;5.624;2023-12-20T13:28:29;7.70;99.90
53876;DHT22;39789;53.216;5.624;2023-12-20T13:30:54;7.40;99.90
53876;DHT22;39789;53.216;5.624;2023-12-20T13:33:20;7.50;99.90
53876;DHT22;39789;53.216;5.624;2023-12-20T13:35:47;7.30;99.90
53876;DHT22;39789;53.216;5.624;2023-12-20T13:38:13;8.20;99.90
53876;DHT22;39789;53.216;5.624;2023-12-20T13:40:39;7.50;99.90
53876;DHT22;39789;53.216;5.624;2023-12-20T13:43:04;7.50;99.90
53876;DHT22;39789;53.216;5.624;2023-12-20T13:45:31;7.50;99.90
53876;DHT22;39789;53.216;5.624;2023-12-20T13:47:58;7.60;99.90
53876;DHT22;39789;53.216;5.624;2023-12-20T13:50:28;7.60;99.90
53876;DHT22;39789;53.216;5.624;2023-12-20T13:52:54;7.20;99.90
53876;DHT22;39789;53.216;5.624;2023-12-20T13:55:22;7.50;99.90
53876;DHT22;39789;53.216;5.624;2023-12-20T13:57:51;7.60;99.90
53876;DHT22;39789;53.216;5.624;2023-12-20T14:00:16;7.60;99.90
53876;DHT22;39789;53.216;5.624;2023-12-20T14:02:42;7.60;99.90
53876;DHT22;39789;53.216;5.624;2023-12-20T14:05:11;7.60;99.90
53876;DHT22;39789;53.216;5.624;2023-12-20T14:07:38;7.60;99.90
53876;DHT22;39789;53.216;5.624;2023-12-20T14:10:07;7.60;99.90
53876;DHT22;39789;53.216;5.624;2023-12-20T14:12:33;7.60;99.90
53876;DHT22;39789;53.216;5.624;2023-12-20T14:15:02;7.60;99.90
53876;DHT22;39789;53.216;5.624;2023-12-20T14:17:27;7.60;99.90
53876;DHT22;39789;53.216;5.624;2023-12-20T14:19:53;7.70;99.90
53876;DHT22;39789;53.216;5.624;2023-12-20T14:22:20;8.40;99.90
53876;DHT22;39789;53.216;5.624;2023-12-20T14:24:45;7.90;99.90
53876;DHT22;39789;53.216;5.624;2023-12-20T14:27:11;8.30;99.90
53876;DHT22;39789;53.216;5.624;2023-12-20T14:29:40;7.90;99.90
53876;DHT22;39789;53.216;5.624;2023-12-20T14:32:06;8.00;99.90
53876;DHT22;39789;53.216;5.624;2023-12-20T14:34:31;8.00;99.90
53876;DHT22;39789;53.216;5.624;2023-12-20T14:36:57;8.10;99.90
53876;DHT22;39789;53.216;5.624;2023-12-20T14:39:23;8.00;99.90
53876;DHT22;39789;53.216;5.624;2023-12-20T14:41:48;8.50;99.90
53876;DHT22;39789;53.216;5.624;2023-12-20T14:44:14;8.10;99.90
53876;DHT22;39789;53.216;5.624;2023-12-20T14:46:40;8.10;99.90
53876;DHT22;39789;53.216;5.624;2023-12-20T14:49:05;8.70;99.90
53876;DHT22;39789;53.216;5.624;2023-12-20T14:51:31;8.30;99.90
53876;DHT22;39789;53.216;5.624;2023-12-20T14:53:57;8.40;99.90
53876;DHT22;39789;53.216;5.624;2023-12-20T14:56:23;8.10;99.90
53876;DHT22;39789;53.216;5.624;2023-12-20T14:58:51;8.10;99.90
53876;DHT22;39789;53.216;5.624;2023-12-20T15:01:17;8.20;99.90
53876;DHT22;39789;53.216;5.624;2023-12-20T15:03:47;8.10;99.90
53876;DHT22;39789;53.216;5.624;2023-12-20T15:06:13;8.20;99.90
53876;DHT22;39789;53.216;5.624;2023-12-20T15:08:39;8.10;99.90
53876;DHT22;39789;53.216;5.624;2023-12-20T15:11:04;8.70;99.90
53876;DHT22;39789;53.216;5.624;2023-12-20T15:13:31;8.20;99.90
53876;DHT22;39789;53.216;5.624;2023-12-20T15:15:57;8.20;99.90
53876;DHT22;39789;53.216;5.624;2023-12-20T15:18:22;8.20;99.90
53876;DHT22;39789;53.216;5.624;2023-12-20T15:20:48;8.60;99.90
53876;DHT22;39789;53.216;5.624;2023-12-20T15:23:14;8.00;99.90
53876;DHT22;39789;53.216;5.624;2023-12-20T15:25:40;8.10;99.90
53876;DHT22;39789;53.216;5.624;2023-12-20T15:28:06;8.00;99.90
53876;DHT22;39789;53.216;5.624;2023-12-20T15:30:32;8.60;99.90
53876;DHT22;39789;53.216;5.624;2023-12-20T15:32:58;8.30;99.90
53876;DHT22;39789;53.216;5.624;2023-12-20T15:35:24;8.60;99.90
53876;DHT22;39789;53.216;5.624;2023-12-20T15:37:49;8.10;99.90
53876;DHT22;39789;53.216;5.624;2023-12-20T15:40:16;8.10;99.90
53876;DHT22;39789;53.216;5.624;2023-12-20T15:42:42;8.10;99.90
53876;DHT22;39789;53.216;5.624;2023-12-20T15:45:09;8.10;99.90